Portada
METAR-TAF:

METAR-TAF

Aeroports :

Aeroport Internacional Maiquetía Simón Bolívar

Caracas, Veneçuela

latitud: 10-36N, longitud: 066-59W, altitud: 43 m

Observació

L'informe es va fer fa 1 hora i 47 minuts, a les 14:00 UTC
Vent 4 kt del Nord/Nord-Oest
Temperatura 29°C
Humitat 70%
Pressió 1012 hPa
Visibilitat 10 km o més
Núvols disperses a una alçada de 1300 ft

METAR: SVMI 231400Z 34004KT 9999 SCT013 29/23 Q1012

Hora: 11:47 (15:47 UTC)

Pronòstic

L'informe es va fer fa 5 hores i 47 minuts, a les 10:00 UTC
Pronòstic vàlid del 23 a les 12 UTC al 24 a les 12 UTC
Visibilitat 10 km o més
Escasses núvols a una alçada de 1600 ft
Núvols disperses a una alçada de 10000 ft
Evolucionant progressivament
l' 23 a les 14 UTC al 23 a les 18 UTC
Vent 12 kt del Nord-Est
Visibilitat 10 km o més
Núvols disperses a una alçada de 1600 ft

TAF: SVMI 231000Z 2312/2412 0000KT 9999 FEW016 SCT100 TX32/16Z TN24/10Z BECMG 2314/2318 05012KT 9999 SCT016

Observacions i pronòstics meteorològics de més de 4000 aeroports (METAR i TAF).

Les estacions disponibles són els punts grocs i vermells al mapa.

Posi el ratolí al punt desitjat per veure el nom de l'estació.

Feu clic per veure les observacions i els pronòstics meteorològics.

Per canviar el mapa: feu clic els botons verds amb una creu de color negre per apropar; al botó verd amb un guió per allunyar la imatge; o en les fletxes verdes per a mapes adjacents.


METAR-TAF: